Terminal Aerodrome Forecast
Issued by NWS Twin Cities, MN

Home | Current Version | Previous Version | Text Only | Print | Product List | Glossary Off
Versions: 1 2 3 4 5 6 7 8 9 10 11 12 13 14 15 16 17 18 19 20 21 22 23 24 25 26 27 28 29 30 31

457
FTUS43 KMPX 262320
TAFMSP
TAF
KMSP 262320Z 2700/2806 28009KT P6SM FEW250
     FM270100 VRB03KT P6SM FEW070 OVC250
     FM271000 09005KT 5SM -SHRA BR SCT020 OVC050 PROB30 2712/2716
      -TSRA OVC020CB
     FM271600 13007KT P6SM VCSH OVC040
     FM271900 15007KT P6SM SCT040 BKN200=

USA.gov is the U.S. government's official web portal to all federal, state and local government web resources and services.